Time;durP1;ratioP1;P1;durP2;ratioP2;P2;SDS_P1;SDS_P2;PMS_P1;PMS_P2;Temp;Humidity;BMP_temperature;BMP_pressure;BME280_temperature;BME280_humidity;BME280_pressure;Samples;Min_cycle;Max_cycle;Signal;HPM_P1;HPM_P2
2023/09/26 00:01:06;;;;;;;5.05;2.72;;;;;;;10.56;100.00;102279.88;4974198;28;20186;-48
2023/09/26 00:03:32;;;;;;;7.25;3.28;;;;;;;10.53;100.00;102269.19;4970567;28;20300;-47
2023/09/26 00:05:57;;;;;;;3.78;2.95;;;;;;;10.55;100.00;102277.19;4970630;28;20217;-48
2023/09/26 00:08:23;;;;;;;5.82;3.30;;;;;;;10.51;100.00;102273.66;4974798;28;20575;-47
2023/09/26 00:10:49;;;;;;;3.67;3.10;;;;;;;10.26;100.00;102270.44;4968900;28;20212;-47
2023/09/26 00:13:15;;;;;;;3.45;3.25;;;;;;;10.17;100.00;102273.25;4975849;28;20225;-48
2023/09/26 00:15:41;;;;;;;3.28;2.97;;;;;;;10.14;100.00;102278.63;4972769;28;20191;-50
2023/09/26 00:18:07;;;;;;;3.60;3.30;;;;;;;10.13;100.00;102269.72;4972650;28;20194;-47
2023/09/26 00:20:37;;;;;;;3.30;3.10;;;;;;;10.07;100.00;102278.69;4977407;28;20186;-49
2023/09/26 00:23:04;;;;;;;3.97;3.65;;;;;;;10.07;100.00;102291.22;4973587;28;20394;-48
2023/09/26 00:25:30;;;;;;;4.30;3.80;;;;;;;10.17;100.00;102281.28;4975651;28;20596;-48
2023/09/26 00:27:56;;;;;;;4.53;3.70;;;;;;;10.11;100.00;102284.91;4980430;28;20182;-48
2023/09/26 00:30:24;;;;;;;3.88;3.58;;;;;;;10.17;100.00;102284.84;4969547;28;20186;-49
2023/09/26 00:32:49;;;;;;;4.63;3.50;;;;;;;10.22;100.00;102296.38;4977816;28;20206;-49
2023/09/26 00:35:15;;;;;;;3.42;3.20;;;;;;;10.19;100.00;102290.16;4969634;28;20189;-48
2023/09/26 00:37:41;;;;;;;5.82;3.60;;;;;;;10.24;100.00;102296.34;4974636;28;20252;-49
2023/09/26 00:40:12;;;;;;;4.55;3.38;;;;;;;10.30;100.00;102289.16;4980221;28;20263;-49
2023/09/26 00:42:38;;;;;;;4.97;3.15;;;;;;;10.33;100.00;102279.31;4975230;28;20202;-50
2023/09/26 00:45:04;;;;;;;3.28;3.00;;;;;;;10.24;100.00;102285.66;4968888;28;20217;-49
2023/09/26 00:47:34;;;;;;;3.75;3.45;;;;;;;10.23;100.00;102287.44;4971643;28;20181;-49
2023/09/26 00:50:03;;;;;;;4.25;3.22;;;;;;;10.30;100.00;102278.44;4969048;28;20193;-47
2023/09/26 00:52:29;;;;;;;4.82;3.60;;;;;;;10.26;100.00;102282.03;4972844;28;20655;-48
2023/09/26 00:54:55;;;;;;;6.22;3.60;;;;;;;10.16;100.00;102277.69;4972112;28;20177;-48
2023/09/26 00:57:21;;;;;;;5.10;3.83;;;;;;;10.15;100.00;102277.75;4973090;28;20221;-47
2023/09/26 00:59:47;;;;;;;5.20;4.70;;;;;;;10.19;100.00;102285.72;4972955;28;20197;-48
2023/09/26 01:02:13;;;;;;;5.32;4.80;;;;;;;10.27;100.00;102280.22;4969456;28;20213;-49
2023/09/26 01:04:39;;;;;;;5.60;4.45;;;;;;;10.20;100.00;102276.75;4968825;28;20221;-50
2023/09/26 01:07:05;;;;;;;4.07;3.78;;;;;;;10.20;100.00;102284.78;4970791;28;20186;-47
2023/09/26 01:09:30;;;;;;;3.67;3.38;;;;;;;10.24;100.00;102286.53;4971161;28;20200;-48
2023/09/26 01:11:56;;;;;;;4.47;3.83;;;;;;;10.30;100.00;102285.59;4971287;28;20225;-49
2023/09/26 01:14:22;;;;;;;4.40;4.00;;;;;;;10.26;100.00;102286.50;4967785;28;20181;-50
2023/09/26 01:16:54;;;;;;;5.45;4.10;;;;;;;10.19;100.00;102282.13;4974173;28;20186;-48
2023/09/26 01:19:20;;;;;;;5.20;3.55;;;;;;;10.17;100.00;102283.97;4969628;28;20546;-49
2023/09/26 01:21:46;;;;;;;4.63;3.58;;;;;;;10.05;100.00;102287.66;4966974;28;20222;-49
2023/09/26 01:24:12;;;;;;;3.97;3.28;;;;;;;9.96;100.00;102290.47;4960512;28;20591;-49
2023/09/26 01:26:37;;;;;;;3.20;3.00;;;;;;;9.96;100.00;102290.47;4973990;28;20673;-50
2023/09/26 01:29:04;;;;;;;6.95;3.83;;;;;;;10.01;100.00;102285.94;4978732;28;20257;-49
2023/09/26 01:31:33;;;;;;;3.10;2.90;;;;;;;10.06;100.00;102276.94;4971221;28;20210;-48
2023/09/26 01:33:59;;;;;;;6.85;3.78;;;;;;;9.99;100.00;102279.69;4960159;28;20637;-49
2023/09/26 01:36:26;;;;;;;4.45;3.25;;;;;;;9.99;100.00;102267.22;4969928;28;20181;-48
2023/09/26 01:38:53;;;;;;;5.18;3.10;;;;;;;9.97;100.00;102262.78;4981080;28;20555;-47
2023/09/26 01:41:21;;;;;;;3.67;3.38;;;;;;;9.88;100.00;102270.03;4988219;28;20585;-48
2023/09/26 01:43:46;;;;;;;5.95;3.38;;;;;;;9.87;100.00;102252.19;4982353;28;20209;-49
2023/09/26 01:46:12;;;;;;;3.55;3.00;;;;;;;9.83;100.00;102258.47;4977783;28;20194;-48
2023/09/26 01:48:37;;;;;;;3.47;3.17;;;;;;;9.85;100.00;102250.44;4982452;28;20291;-47
2023/09/26 01:51:06;;;;;;;3.83;3.35;;;;;;;9.70;100.00;102259.53;4977699;28;20269;-48
2023/09/26 01:53:31;;;;;;;3.47;3.28;;;;;;;9.72;100.00;102252.38;4967266;28;20215;-48
2023/09/26 01:56:00;;;;;;;3.63;3.42;;;;;;;9.70;100.00;102249.69;4978498;28;20240;-45
2023/09/26 01:58:26;;;;;;;3.70;3.40;;;;;;;9.79;100.00;102262.09;4971673;28;20286;-48
2023/09/26 02:00:51;;;;;;;3.75;3.40;;;;;;;9.78;100.00;102265.69;4975199;28;20276;-50
2023/09/26 02:03:17;;;;;;;4.20;3.90;;;;;;;9.71;100.00;102258.63;4971930;28;20201;-48
2023/09/26 02:05:42;;;;;;;3.63;3.33;;;;;;;9.67;100.00;102260.44;4971155;28;20193;-48
2023/09/26 02:08:08;;;;;;;3.35;3.15;;;;;;;9.64;100.00;102249.81;4973635;28;20241;-49
2023/09/26 02:10:34;;;;;;;3.95;3.33;;;;;;;9.63;100.00;102249.81;4971534;28;20186;-48
2023/09/26 02:13:00;;;;;;;4.13;3.80;;;;;;;9.67;100.00;102249.75;4980424;28;20327;-50
2023/09/26 02:15:26;;;;;;;5.63;3.95;;;;;;;9.59;100.00;102248.06;4970438;28;20178;-49
2023/09/26 02:17:52;;;;;;;4.75;4.13;;;;;;;9.56;100.00;102238.28;4978023;28;20186;-49
2023/09/26 02:20:19;;;;;;;4.97;4.57;;;;;;;9.60;100.00;102247.16;4978818;28;20192;-49
2023/09/26 02:22:51;;;;;;;5.63;5.10;;;;;;;9.57;100.00;102239.16;4972503;28;20582;-49
2023/09/26 02:25:19;;;;;;;4.95;4.45;;;;;;;9.54;100.00;102237.41;4974983;28;20304;-48
2023/09/26 02:27:45;;;;;;;4.88;4.50;;;;;;;9.54;100.00;102231.19;4982539;28;20272;-50
2023/09/26 02:30:16;;;;;;;4.80;4.40;;;;;;;9.51;100.00;102240.13;4977662;28;20265;-49
2023/09/26 02:32:41;;;;;;;3.97;3.60;;;;;;;9.55;100.00;102239.19;4969377;28;20214;-48
2023/09/26 02:35:09;;;;;;;4.25;3.95;;;;;;;9.47;100.00;102231.25;4969893;28;20549;-51
2023/09/26 02:37:35;;;;;;;4.32;3.92;;;;;;;9.39;100.00;102232.25;4963845;28;20222;-50
2023/09/26 02:40:05;;;;;;;6.78;3.90;;;;;;;9.35;100.00;102225.16;4982062;28;20185;-49
2023/09/26 02:42:32;;;;;;;4.10;3.72;;;;;;;9.44;100.00;102236.63;4987107;28;20233;-48
2023/09/26 02:44:58;;;;;;;3.83;3.53;;;;;;;9.46;100.00;102228.59;4978058;28;20747;-49
2023/09/26 02:47:24;;;;;;;3.78;3.47;;;;;;;9.45;100.00;102227.72;4973424;28;20274;-49
2023/09/26 02:49:49;;;;;;;4.15;3.85;;;;;;;9.32;100.00;102226.06;4984762;28;20239;-50
2023/09/26 02:52:14;;;;;;;4.13;3.83;;;;;;;9.42;100.00;102242.88;4982463;28;20198;-48
2023/09/26 02:54:41;;;;;;;4.72;4.32;;;;;;;9.45;100.00;102245.56;4976081;28;20174;-49
2023/09/26 02:57:06;;;;;;;4.82;4.43;;;;;;;9.41;100.00;102251.84;4972947;28;20659;-49
2023/09/26 02:59:32;;;;;;;4.82;4.43;;;;;;;9.36;100.00;102241.19;4974693;28;20185;-49
2023/09/26 03:01:57;;;;;;;5.60;4.13;;;;;;;9.25;100.00;102241.28;4977214;28;20255;-50
2023/09/26 03:04:24;;;;;;;5.15;4.28;;;;;;;9.26;100.00;102234.16;4986690;28;20293;-50
2023/09/26 03:06:49;;;;;;;5.50;5.10;;;;;;;9.20;100.00;102236.88;4967123;28;20684;-48
2023/09/26 03:09:15;;;;;;;4.53;4.13;;;;;;;9.16;100.00;102237.81;4973106;28;20539;-48
2023/09/26 03:11:41;;;;;;;4.80;4.50;;;;;;;9.14;100.00;102234.25;4967279;28;20572;-50
2023/09/26 03:14:07;;;;;;;4.93;4.50;;;;;;;9.06;100.00;102219.19;4971411;28;20255;-50
2023/09/26 03:16:32;;;;;;;5.03;4.57;;;;;;;8.96;100.00;102224.63;4971933;28;20637;-49
2023/09/26 03:18:58;;;;;;;5.20;4.80;;;;;;;8.91;100.00;102221.13;4986223;28;20240;-50
2023/09/26 03:21:24;;;;;;;5.93;5.43;;;;;;;8.90;100.00;102220.25;4977374;28;20286;-50
2023/09/26 03:23:49;;;;;;;5.95;5.05;;;;;;;8.90;100.00;102217.56;4994088;28;20213;-49
2023/09/26 03:26:15;;;;;;;6.13;5.53;;;;;;;8.85;100.00;102214.03;4972276;28;20687;-49
2023/09/26 03:28:41;;;;;;;7.90;5.68;;;;;;;8.80;100.00;102215.88;4974347;28;20186;-49
2023/09/26 03:31:10;;;;;;;5.88;5.38;;;;;;;8.62;100.00;102214.25;4975693;28;20624;-49
2023/09/26 03:33:38;;;;;;;5.90;5.40;;;;;;;8.67;100.00;102209.75;4985139;28;20665;-49
2023/09/26 03:36:04;;;;;;;5.30;4.90;;;;;;;8.66;100.00;102219.53;4977009;28;20212;-49
2023/09/26 03:38:30;;;;;;;5.20;4.70;;;;;;;8.76;100.00;102215.00;4970310;28;20309;-49
2023/09/26 03:41:00;;;;;;;5.88;5.38;;;;;;;8.76;100.00;102211.44;4976043;28;20198;-49
2023/09/26 03:43:27;;;;;;;7.03;6.30;;;;;;;8.76;100.00;102203.44;4967372;28;20308;-50
2023/09/26 03:46:02;;;;;;;6.57;5.90;;;;;;;8.80;100.00;102205.19;4970675;28;20184;-48
2023/09/26 03:48:28;;;;;;;6.60;5.88;;;;;;;8.80;100.00;102205.19;4972814;28;20663;-50
2023/09/26 03:50:53;;;;;;;6.05;5.65;;;;;;;8.73;100.00;102193.66;4971098;28;20170;-48
2023/09/26 03:53:19;;;;;;;5.90;5.40;;;;;;;8.84;100.00;102198.91;4978419;28;20376;-50
2023/09/26 03:55:53;;;;;;;6.22;5.65;;;;;;;8.87;100.00;102201.53;4972300;28;20209;-51
2023/09/26 03:58:18;;;;;;;5.68;5.28;;;;;;;8.88;100.00;102198.00;4965236;28;20794;-50
2023/09/26 04:00:44;;;;;;;5.30;4.90;;;;;;;8.88;100.00;102203.34;4970638;28;20182;-49
2023/09/26 04:03:09;;;;;;;5.47;5.07;;;;;;;8.83;100.00;102206.06;4969861;28;20237;-49
2023/09/26 04:05:35;;;;;;;6.88;5.93;;;;;;;8.68;100.00;102206.19;4970648;28;20591;-49
2023/09/26 04:08:00;;;;;;;6.95;6.45;;;;;;;8.62;100.00;102196.41;4973145;28;20196;-49
2023/09/26 04:10:25;;;;;;;7.72;7.05;;;;;;;8.61;100.00;102197.31;4976073;28;20201;-49
2023/09/26 04:12:51;;;;;;;7.53;6.82;;;;;;;8.68;100.00;102190.16;4980178;28;20286;-50
2023/09/26 04:15:17;;;;;;;8.95;7.70;;;;;;;8.80;100.00;102190.03;4981390;28;20627;-50
2023/09/26 04:17:42;;;;;;;8.45;7.13;;;;;;;8.69;100.00;102191.91;4978287;28;20224;-49
2023/09/26 04:20:11;;;;;;;7.40;6.80;;;;;;;8.75;100.00;102193.66;4981129;28;20189;-48
2023/09/26 04:22:37;;;;;;;7.38;6.75;;;;;;;8.61;100.00;102194.63;4981863;28;20597;-48
2023/09/26 04:25:03;;;;;;;6.35;5.85;;;;;;;8.70;100.00;102198.13;4966242;28;20215;-50
2023/09/26 04:27:28;;;;;;;7.03;6.35;;;;;;;8.72;100.00;102199.88;4968710;28;20201;-49
2023/09/26 04:29:54;;;;;;;8.25;6.20;;;;;;;8.59;100.00;102204.47;4985554;28;20220;-48
2023/09/26 04:32:19;;;;;;;6.57;6.07;;;;;;;8.63;100.00;102202.66;4978642;28;20208;-49
2023/09/26 04:34:45;;;;;;;6.90;6.28;;;;;;;8.67;100.00;102199.06;4982773;28;20235;-48
2023/09/26 04:37:10;;;;;;;6.43;5.93;;;;;;;8.70;100.00;102198.13;4990314;28;20189;-48
2023/09/26 04:39:36;;;;;;;6.45;5.95;;;;;;;8.66;100.00;102190.16;4976467;28;20184;-49
2023/09/26 04:42:01;;;;;;;5.90;5.40;;;;;;;8.68;100.00;102184.81;4971970;28;20704;-48
2023/09/26 04:44:27;;;;;;;6.40;5.90;;;;;;;8.65;100.00;102185.69;4968992;28;20205;-49
2023/09/26 04:46:52;;;;;;;7.38;6.68;;;;;;;8.49;100.00;102183.19;4978478;28;20190;-48
2023/09/26 04:49:18;;;;;;;9.15;7.63;;;;;;;8.48;100.00;102182.28;4968320;28;20316;-49
2023/09/26 04:51:43;;;;;;;8.30;6.85;;;;;;;8.45;100.00;102191.19;4980651;28;20202;-48
2023/09/26 04:54:08;;;;;;;9.23;6.55;;;;;;;8.54;100.00;102194.72;4967694;28;20254;-47
2023/09/26 04:56:36;;;;;;;7.40;6.80;;;;;;;8.54;100.00;102184.03;4974223;28;20193;-47
2023/09/26 04:59:01;;;;;;;6.28;5.78;;;;;;;8.61;100.00;102197.31;4972448;28;20675;-47
2023/09/26 05:01:27;;;;;;;7.15;6.50;;;;;;;8.57;100.00;102192.00;4981717;28;20213;-47
2023/09/26 05:03:52;;;;;;;7.40;6.75;;;;;;;8.56;100.00;102201.81;4982782;28;20210;-47
2023/09/26 05:06:18;;;;;;;5.97;5.53;;;;;;;8.65;100.00;102206.19;4986112;28;20217;-47
2023/09/26 05:08:44;;;;;;;7.03;6.43;;;;;;;8.69;100.00;102202.59;4967766;28;20566;-46
2023/09/26 05:11:14;;;;;;;5.85;5.45;;;;;;;8.64;100.00;102202.63;4970426;28;20185;-49
2023/09/26 05:13:40;;;;;;;6.20;5.68;;;;;;;8.57;100.00;102195.59;4973655;28;20174;-48
2023/09/26 05:16:08;;;;;;;6.55;6.03;;;;;;;8.60;100.00;102200.00;4977039;28;20552;-48
2023/09/26 05:18:34;;;;;;;7.10;6.40;;;;;;;8.59;100.00;102209.81;4964522;28;20525;-49
2023/09/26 05:21:05;;;;;;;6.80;6.28;;;;;;;8.61;100.00;102207.09;4979292;28;20247;-46
2023/09/26 05:23:31;;;;;;;6.75;6.15;;;;;;;8.61;100.00;102199.97;4977199;28;20241;-47
2023/09/26 05:26:12;;;;;;;6.63;5.95;;;;;;;8.67;100.00;102204.41;4967324;28;20190;-47
2023/09/26 05:28:38;;;;;;;7.63;6.28;;;;;;;8.69;100.00;102199.94;4973328;28;20193;-47
2023/09/26 05:31:04;;;;;;;6.43;5.93;;;;;;;8.67;100.00;102201.72;4984303;28;20220;-46
2023/09/26 05:33:30;;;;;;;6.63;5.50;;;;;;;8.72;100.00;102197.22;4988837;28;20261;-47
2023/09/26 05:35:56;;;;;;;6.85;6.25;;;;;;;8.64;100.00;102205.31;4984659;28;20280;-47
2023/09/26 05:38:22;;;;;;;6.70;6.10;;;;;;;8.74;100.00;102199.88;4972832;28;20213;-47
2023/09/26 05:40:48;;;;;;;7.18;6.57;;;;;;;8.76;100.00;102198.09;4973050;28;20277;-46
2023/09/26 05:43:13;;;;;;;6.75;6.13;;;;;;;8.76;100.00;102200.75;4972792;28;20213;-45
2023/09/26 05:45:39;;;;;;;7.28;6.57;;;;;;;8.72;100.00;102199.88;4980594;28;20687;-47
2023/09/26 05:48:04;;;;;;;6.00;5.57;;;;;;;8.81;100.00;102209.59;4978904;28;20170;-45
2023/09/26 05:50:30;;;;;;;6.05;5.55;;;;;;;8.85;100.00;102208.69;4978826;28;20213;-46
2023/09/26 05:52:56;;;;;;;7.05;5.50;;;;;;;8.89;100.00;102210.44;4977395;28;20205;-46
2023/09/26 05:55:22;;;;;;;6.80;6.10;;;;;;;8.90;100.00;102214.91;4981589;28;20173;-45
2023/09/26 05:57:48;;;;;;;6.40;5.80;;;;;;;8.93;100.00;102211.31;4979801;28;20224;-45
2023/09/26 06:00:14;;;;;;;5.85;5.22;;;;;;;8.96;100.00;102206.81;4970678;28;20769;-44
2023/09/26 06:02:40;;;;;;;6.70;6.18;;;;;;;8.98;100.00;102206.78;4983429;28;20205;-46
2023/09/26 06:05:06;;;;;;;6.47;5.05;;;;;;;9.05;100.00;102203.16;4975077;28;20210;-45
2023/09/26 06:07:32;;;;;;;6.97;6.15;;;;;;;8.99;100.00;102198.78;4986644;28;20244;-46
2023/09/26 06:09:58;;;;;;;6.07;5.57;;;;;;;9.06;100.00;102196.91;4976523;28;20190;-44
2023/09/26 06:12:24;;;;;;;7.13;6.43;;;;;;;9.14;100.00;102199.50;4982858;28;20214;-45
2023/09/26 06:14:51;;;;;;;7.50;6.80;;;;;;;9.29;100.00;102204.69;4970115;28;20615;-43
2023/09/26 06:17:16;;;;;;;7.07;6.47;;;;;;;9.48;100.00;102203.56;4976985;28;20244;-44
2023/09/26 06:19:46;;;;;;;6.78;6.18;;;;;;;9.66;100.00;102202.50;4973763;28;20563;-43
2023/09/26 06:22:13;;;;;;;7.07;6.47;;;;;;;9.79;100.00;102196.97;4970588;28;20237;-43
2023/09/26 06:24:38;;;;;;;10.93;8.82;;;;;;;10.03;100.00;102187.72;4973235;28;20572;-43
2023/09/26 06:27:04;;;;;;;8.45;7.75;;;;;;;10.10;100.00;102192.97;4973248;28;20189;-44
2023/09/26 06:29:29;;;;;;;8.85;8.05;;;;;;;10.13;100.00;102194.72;4976047;28;20222;-44
2023/09/26 06:31:54;;;;;;;7.50;6.85;;;;;;;10.13;100.00;102196.53;4971498;28;20623;-43
2023/09/26 06:34:20;;;;;;;7.28;6.60;;;;;;;10.13;100.00;102207.25;4972183;28;20605;-45
2023/09/26 06:36:49;;;;;;;7.82;7.13;;;;;;;10.28;100.00;102212.38;4975026;28;20536;-45
2023/09/26 06:39:15;;;;;;;8.10;7.30;;;;;;;10.35;100.00;102210.53;4979382;28;20197;-44
2023/09/26 06:41:40;;;;;;;7.82;7.13;;;;;;;10.45;100.00;102223.75;4978089;28;20348;-44
2023/09/26 06:44:09;;;;;;;8.43;7.55;;;;;;;10.48;100.00;102228.19;4977011;28;20898;-44
2023/09/26 06:46:35;;;;;;;8.45;7.55;;;;;;;10.55;100.00;102224.47;4975130;28;20305;-43
2023/09/26 06:49:01;;;;;;;7.65;6.95;;;;;;;10.62;100.00;102212.75;4973155;28;20563;-45
2023/09/26 06:51:26;;;;;;;8.63;7.75;;;;;;;10.75;100.00;102220.59;4971773;28;20240;-46
2023/09/26 06:53:52;;;;;;;8.25;7.47;;;;;;;10.88;100.00;102223.03;4971341;28;20186;-46
2023/09/26 06:56:17;;;;;;;9.18;8.32;;;;;;;11.01;100.00;102212.97;4972470;28;20233;-43
2023/09/26 06:58:43;;;;;;;8.70;7.97;;;;;;;11.21;100.00;102206.38;4970124;28;20232;-44
2023/09/26 07:01:14;;;;;;;9.00;7.35;;;;;;;11.34;100.00;102210.59;4973259;28;20536;-44
2023/09/26 07:03:39;;;;;;;9.27;8.38;;;;;;;11.43;100.00;102209.53;4970254;28;20574;-46
2023/09/26 07:06:12;;;;;;;8.52;7.70;;;;;;;11.50;100.00;102211.16;4969954;28;20197;-44
2023/09/26 07:08:39;;;;;;;9.70;7.35;;;;;;;11.73;100.00;102202.66;4973014;28;20229;-46
2023/09/26 07:11:06;;;;;;;9.18;7.53;;;;;;;11.98;100.00;102207.53;4966707;28;20190;-44
2023/09/26 07:13:34;;;;;;;10.98;7.32;;;;;;;12.25;100.00;102201.53;4976806;28;20210;-45
2023/09/26 07:16:01;;;;;;;8.18;6.60;;;;;;;12.46;100.00;102193.88;4968351;28;20256;-45
2023/09/26 07:18:26;;;;;;;7.75;6.10;;;;;;;12.85;100.00;102192.00;4971059;28;20652;-45
2023/09/26 07:20:53;;;;;;;6.97;6.00;;;;;;;13.06;100.00;102185.19;4976647;28;20203;-48
2023/09/26 07:23:19;;;;;;;7.45;5.50;;;;;;;13.12;100.00;102187.72;4954695;28;20290;-50
2023/09/26 07:25:45;;;;;;;5.45;4.93;;;;;;;13.36;100.00;102201.44;4945402;28;20206;-50
2023/09/26 07:28:10;;;;;;;6.13;5.28;;;;;;;13.36;100.00;102204.16;4970464;28;20248;-47
2023/09/26 07:30:36;;;;;;;5.13;4.63;;;;;;;13.43;100.00;102186.00;4974356;23;20708;-48
2023/09/26 07:33:03;;;;;;;5.22;4.68;;;;;;;13.69;100.00;102186.13;4922308;29;20259;-48
2023/09/26 07:35:29;;;;;;;8.05;5.30;;;;;;;13.96;100.00;102186.22;4930099;29;20184;-48
2023/09/26 07:37:55;;;;;;;5.43;4.93;;;;;;;14.31;100.00;102179.72;4926517;29;20227;-48
2023/09/26 07:40:21;;;;;;;8.02;4.38;;;;;;;14.67;100.00;102183.97;4926237;29;20536;-47
2023/09/26 07:42:47;;;;;;;4.28;3.88;;;;;;;14.74;100.00;102186.44;4925098;29;20582;-45
2023/09/26 07:45:16;;;;;;;4.45;4.03;;;;;;;14.83;100.00;102167.22;4922958;29;20223;-47
2023/09/26 07:47:43;;;;;;;4.07;3.63;;;;;;;15.01;100.00;102179.19;4924988;29;20187;-48
2023/09/26 07:50:09;;;;;;;5.82;3.65;;;;;;;15.10;100.00;102188.78;4928694;28;20213;-46
2023/09/26 07:52:35;;;;;;;5.85;4.65;;;;;;;15.39;100.00;102181.44;4925836;29;20203;-46
2023/09/26 07:55:00;;;;;;;3.60;3.38;;;;;;;15.26;98.38;102172.91;4925329;29;20187;-48
2023/09/26 07:57:26;;;;;;;4.07;3.40;;;;;;;15.38;97.11;102168.88;4925656;28;20564;-48
2023/09/26 07:59:51;;;;;;;3.72;3.42;;;;;;;15.62;95.26;102170.66;4929425;29;20713;-47
2023/09/26 08:02:16;;;;;;;3.92;3.60;;;;;;;15.62;93.28;102172.50;4919130;28;20311;-49
2023/09/26 08:04:42;;;;;;;4.00;3.53;;;;;;;15.41;92.27;102176.88;4920742;29;20274;-47
2023/09/26 08:07:08;;;;;;;7.45;3.88;;;;;;;15.30;91.77;102170.97;4927365;29;20199;-46
2023/09/26 08:09:33;;;;;;;3.70;3.40;;;;;;;15.23;91.48;102171.19;4926032;29;20262;-47
2023/09/26 08:11:59;;;;;;;4.97;3.70;;;;;;;15.40;90.73;102176.00;4926437;29;20629;-46
2023/09/26 08:14:24;;;;;;;3.83;3.38;;;;;;;15.49;90.26;102163.09;4923235;29;20194;-47
2023/09/26 08:16:50;;;;;;;3.65;3.33;;;;;;;15.49;89.74;102160.41;4927439;29;20183;-46
2023/09/26 08:19:15;;;;;;;3.85;3.20;;;;;;;15.53;89.48;102159.34;4924035;29;20651;-46
2023/09/26 08:21:41;;;;;;;5.10;3.70;;;;;;;15.28;88.87;102151.25;4922753;29;20206;-46
2023/09/26 08:24:07;;;;;;;5.35;3.28;;;;;;;15.33;88.89;102147.47;4928659;29;20302;-48
2023/09/26 08:26:32;;;;;;;3.25;2.95;;;;;;;15.44;88.96;102147.06;4920997;29;20279;-47
2023/09/26 08:28:58;;;;;;;24.00;4.38;;;;;;;15.48;89.74;102147.81;4926973;29;20184;-47
2023/09/26 08:31:23;;;;;;;6.38;3.30;;;;;;;15.57;89.89;102156.47;4923407;29;20227;-47
2023/09/26 08:33:49;;;;;;;3.67;3.22;;;;;;;15.62;89.83;102159.00;4929339;29;20179;-46
2023/09/26 08:36:17;;;;;;;4.25;2.95;;;;;;;15.55;89.18;102161.03;4921942;29;20716;-46
2023/09/26 08:38:46;;;;;;;4.55;3.28;;;;;;;15.72;88.92;102162.22;4925217;29;20674;-46
2023/09/26 08:41:12;;;;;;;4.95;3.40;;;;;;;15.74;88.20;102160.34;4926077;29;20274;-47
2023/09/26 08:43:38;;;;;;;3.45;3.03;;;;;;;15.79;87.91;102161.09;4931846;28;20254;-42
2023/09/26 08:46:05;;;;;;;3.25;2.97;;;;;;;15.71;87.48;102153.25;4940586;28;20198;-42
2023/09/26 08:48:31;;;;;;;4.28;3.20;;;;;;;15.90;87.08;102150.72;4932397;29;20285;-41
2023/09/26 08:50:57;;;;;;;4.57;2.97;;;;;;;16.33;86.29;102148.09;4930822;28;20679;-42
2023/09/26 08:53:22;;;;;;;4.38;2.90;;;;;;;16.83;85.53;102145.09;4930281;29;20458;-42
2023/09/26 08:55:51;;;;;;;3.63;2.90;;;;;;;17.25;84.93;102142.34;4927263;28;20187;-41
2023/09/26 08:58:19;;;;;;;3.13;2.70;;;;;;;17.63;83.75;102138.81;4924672;29;20188;-42
2023/09/26 09:00:45;;;;;;;4.68;3.42;;;;;;;17.33;81.48;102114.88;4924077;29;20191;-41
2023/09/26 09:03:10;;;;;;;4.47;3.30;;;;;;;17.07;79.97;102100.69;4928927;29;20203;-42
2023/09/26 09:05:36;;;;;;;4.35;2.65;;;;;;;17.22;79.84;102096.41;4930323;29;20677;-40
2023/09/26 09:08:02;;;;;;;4.35;2.90;;;;;;;17.32;79.20;102095.97;4921674;29;20655;-41
2023/09/26 09:10:27;;;;;;;4.63;2.92;;;;;;;17.41;78.65;102098.28;4923566;29;20255;-41
2023/09/26 09:13:04;;;;;;;4.10;2.60;;;;;;;16.99;79.32;102088.44;4929309;28;20227;-42
2023/09/26 09:15:30;;;;;;;4.90;2.95;;;;;;;16.78;79.70;102098.41;4926910;29;20246;-41
2023/09/26 09:17:57;;;;;;;5.47;2.47;;;;;;;16.83;80.12;102093.69;4925384;29;20182;-41
2023/09/26 09:20:33;;;;;;;4.28;3.25;;;;;;;17.20;79.87;102090.19;4927693;29;20282;-41
2023/09/26 09:23:03;;;;;;;5.75;3.08;;;;;;;17.23;78.60;102081.03;4928534;29;20795;-41
2023/09/26 09:25:30;;;;;;;3.47;2.72;;;;;;;17.64;77.17;102070.09;4933187;29;20675;-42
2023/09/26 09:27:59;;;;;;;3.53;2.45;;;;;;;18.04;75.80;102047.38;4929357;29;20175;-40
2023/09/26 09:30:24;;;;;;;4.30;2.42;;;;;;;18.30;75.20;102037.00;4929338;29;20580;-41
2023/09/26 09:32:50;;;;;;;4.07;2.65;;;;;;;18.11;73.75;102035.25;4933455;29;20243;-41
2023/09/26 09:35:17;;;;;;;3.13;2.10;;;;;;;18.66;72.81;102036.06;4936115;29;20299;-41
2023/09/26 09:37:47;;;;;;;3.05;2.53;;;;;;;19.01;71.42;102036.91;4931323;29;20194;-41
2023/09/26 09:40:19;;;;;;;4.70;2.00;;;;;;;19.09;70.50;102012.06;4930608;28;20188;-42
2023/09/26 09:42:51;;;;;;;3.08;2.28;;;;;;;19.02;69.47;102013.31;4925486;29;20211;-41
2023/09/26 09:45:18;;;;;;;5.82;2.05;;;;;;;19.14;69.17;101999.94;4925337;29;20310;-41
2023/09/26 09:47:48;;;;;;;4.20;2.30;;;;;;;19.26;68.96;101992.97;4934663;29;20187;-41
2023/09/26 09:50:15;;;;;;;3.40;2.17;;;;;;;19.25;69.28;101996.63;4930105;29;20207;-41
2023/09/26 09:52:48;;;;;;;3.17;2.00;;;;;;;19.32;70.33;101998.03;4925612;29;20227;-42
2023/09/26 09:55:20;;;;;;;3.42;2.00;;;;;;;19.29;69.36;101995.50;4926917;29;20271;-43
2023/09/26 09:57:50;;;;;;;5.80;2.15;;;;;;;19.26;69.74;102005.66;4934906;29;20175;-42
2023/09/26 10:00:20;;;;;;;4.05;2.00;;;;;;;19.32;70.03;102008.03;4932461;28;20357;-42
2023/09/26 10:02:50;;;;;;;1.83;1.70;;;;;;;19.31;69.50;102006.28;4927455;29;20225;-41
2023/09/26 10:05:19;;;;;;;2.28;1.88;;;;;;;19.30;69.56;102008.09;4926395;29;20200;-42
2023/09/26 10:07:46;;;;;;;1.98;1.88;;;;;;;19.20;69.61;102006.00;4929064;29;20188;-41
2023/09/26 10:10:14;;;;;;;1.80;1.70;;;;;;;19.15;71.16;102019.84;4928680;28;20183;-41
2023/09/26 10:12:40;;;;;;;3.90;1.85;;;;;;;19.20;71.48;102006.88;4934159;29;20278;-43
2023/09/26 10:15:11;;;;;;;2.15;1.95;;;;;;;19.28;72.55;102022.75;4926698;29;20558;-42
2023/09/26 10:17:38;;;;;;;1.98;1.85;;;;;;;19.38;70.12;101995.94;4934043;29;20189;-46
2023/09/26 10:20:07;;;;;;;5.53;1.75;;;;;;;19.30;69.42;101982.78;4934791;29;20191;-46
2023/09/26 10:22:35;;;;;;;3.28;1.98;;;;;;;19.56;68.99;101981.28;4932387;29;20203;-45
2023/09/26 10:25:02;;;;;;;2.25;1.80;;;;;;;19.43;69.10;101982.97;4929887;28;20578;-45
2023/09/26 10:27:30;;;;;;;2.42;2.00;;;;;;;19.62;69.87;101999.09;4932855;28;20676;-44
2023/09/26 10:29:56;;;;;;;3.15;1.70;;;;;;;19.67;68.13;101984.25;4928626;29;20230;-44
2023/09/26 10:32:29;;;;;;;2.35;1.80;;;;;;;19.61;67.79;101971.03;4934106;29;20227;-43
2023/09/26 10:34:57;;;;;;;4.25;2.10;;;;;;;19.86;67.06;101964.19;4931718;29;20183;-44
2023/09/26 10:37:25;;;;;;;2.92;2.08;;;;;;;20.04;66.12;101954.06;4924628;28;20184;-45
2023/09/26 10:39:50;;;;;;;1.88;1.60;;;;;;;20.19;64.97;101941.38;4931075;29;20270;-45
2023/09/26 10:42:23;;;;;;;2.67;1.67;;;;;;;20.11;64.55;101933.66;4928190;29;20286;-44
2023/09/26 10:44:50;;;;;;;3.45;1.60;;;;;;;20.04;63.22;101914.13;4931109;29;20202;-45
2023/09/26 10:47:22;;;;;;;2.80;1.60;;;;;;;20.12;63.16;101930.84;4927363;29;20202;-45
2023/09/26 10:49:47;;;;;;;3.92;1.55;;;;;;;20.16;62.50;101920.66;4931256;29;20219;-45
2023/09/26 10:52:14;;;;;;;2.22;1.48;;;;;;;20.14;61.13;101907.16;4942269;28;20218;-45
2023/09/26 10:54:41;;;;;;;3.03;1.50;;;;;;;20.15;60.43;101891.69;4932275;29;20184;-45
2023/09/26 10:57:07;;;;;;;2.30;1.63;;;;;;;20.07;59.76;101885.84;4931909;29;20185;-45
2023/09/26 10:59:34;;;;;;;2.72;1.70;;;;;;;20.48;59.95;101883.25;4928073;29;20179;-46
2023/09/26 11:02:01;;;;;;;1.75;1.65;;;;;;;20.46;59.38;101877.03;4928319;29;20289;-43
2023/09/26 11:04:28;;;;;;;4.78;1.60;;;;;;;20.61;59.41;101877.06;4931094;29;20229;-46
2023/09/26 11:06:56;;;;;;;2.17;1.50;;;;;;;20.84;59.03;101876.47;4926306;29;20209;-44
2023/09/26 11:09:22;;;;;;;1.65;1.52;;;;;;;20.46;59.55;101885.19;4927112;28;20237;-44
2023/09/26 11:11:48;;;;;;;1.52;1.38;;;;;;;20.51;58.57;101864.03;4929131;28;20292;-45
2023/09/26 11:14:14;;;;;;;2.05;1.90;;;;;;;20.63;58.87;101878.72;4926775;29;20838;-44
2023/09/26 11:16:42;;;;;;;2.65;1.60;;;;;;;20.73;59.73;101879.03;4927593;29;20190;-44
2023/09/26 11:19:11;;;;;;;3.05;1.55;;;;;;;20.41;58.89;101871.00;4927744;29;20194;-44